• Join FlightAware (Why Join?)
  • Login
  • US Flag 
11:45PM EDT


 

Airport Tracker/Info


-or-


 

Live Flight TrackerFlight Track Log ✈ DAL6201 ✈ 12-Jun-2013 ✈ KPIT - KLGA

Flight Track Log - Related Links

Times and Time Zones

All times are in EDT time to prevent confusion due to time zone crossing. See the DAL6201 flight status page for this flight to view local times or setup timezone preferences in your user account.

Time Position Orientation Groundspeed Altitude Reporting Facility
EDT Latitude Longitude Course Direction KTS MPH feet Rate Location/Type
07:07PM 40.5108 -80.2800 80° East 163 188 2,400  Level Cleveland Center
07:08PM 40.5586 -80.2525 24° Northeast 177 204 4,100 1,740 Climbing Cleveland Center
07:09PM 40.5814 -80.1731 69° East 186 214 5,900 2,400 Climbing Cleveland Center
07:10PM 40.6039 -80.0717 74° East 219 252 8,900 2,400 Climbing Cleveland Center
07:11PM 40.6178 -79.9458 82° East 286 329 10,800 1,740 Climbing Cleveland Center
07:12PM 40.6317 -79.8061 82° East 333 383 12,400 1,800 Climbing Cleveland Center
07:13PM 40.5501 -79.3829 80° East  Level Estimated
07:13PM 40.6408 -79.6611 85° East 374 430 14,400  Level Cleveland Center
07:14PM 40.6542 -79.5075 83° East 404 465 16,400 1,800 Climbing Cleveland Center
07:15PM 40.6631 -79.3706 85° East 416 479 18,100 1,260 Climbing Cleveland Center
07:16PM 40.6739 -79.2197 85° East 416 479 19,000 1,080 Climbing Cleveland Center
07:17PM 40.6847 -79.0689 85° East 416 479 20,300 1,320 Climbing Cleveland Center
07:18PM 40.6969 -78.8989 85° East 421 484 21,700 1,440 Climbing Cleveland Center
07:19PM 40.7069 -78.7397 85° East 426 490 23,200 1,320 Climbing Cleveland Center
07:22PM 40.6978 -78.5635 82° East  Level FlightAware Approximate
07:22PM 40.7678 -78.2686 82° East 438 504 27,000  Level New York Center
07:23PM 40.8386 -78.1364 55° Northeast 427 491 28,200 960 Climbing New York Center
07:24PM 40.9072 -78.0008 56° Northeast 432 497 29,000 360 Climbing New York Center
07:25PM 40.9303 -77.8275 80° East 450 518 29,000  Level New York Center
07:26PM 40.9450 -77.6503 84° East 469 540 29,000  Level New York Center
07:27PM 40.9592 -77.4731 84° East 474 545 29,000  Level New York Center
07:28PM 40.9606 -77.2972 89° East 482 555 29,000 -1,020 Level New York Center
07:29PM 40.9536 -77.1208 93° East 476 548 27,000 -1,860 Descending New York Center
07:30PM 40.9461 -76.9469 93° East 476 548 25,300 -1,680 Descending New York Center
07:31PM 40.9383 -76.7758 93° East 481 554 23,700 -1,680 Descending New York Center
07:32PM 40.9319 -76.6078 93° East 475 547 22,100 -1,560 Descending New York Center
07:33PM 40.9256 -76.4397 93° East 465 535 20,600 -1,560 Descending New York Center
07:34PM 40.9206 -76.2825 92° East 449 517 19,000 -840 Descending New York Center
07:35PM 40.8942 -76.1294 103° East 431 496 19,000 -1,020 Level New York Center
07:36PM 40.8572 -75.9811 108° East 426 490 17,100 -2,460 Descending New York Center
07:37PM 40.8233 -75.8497 109° East 426 490 14,200 -2,040 Descending New York Center
07:38PM 40.7861 -75.6933 107° East 414 476 13,000 -600 Descending New York Center
07:39PM 40.7522 -75.5567 108° East 409 471 13,000  Level New York Center
07:40PM 40.7181 -75.4175 108° East 404 465 13,000  Level New York Center
07:41PM 40.6917 -75.2897 105° East 399 459 13,000 -660 Level New York Center
07:42PM 40.6578 -75.1425 107° East 388 447 11,700 -1,440 Descending New York Center
07:43PM 40.5864 -75.0394 132° Southeast 380 437 10,200 -900 Descending New York Center
07:44PM 40.5467 -74.9333 116° Southeast 367 422 10,000 -120 Descending New York Center
07:45PM 40.5092 -74.8081 111° Southeast 342 394 10,000  Level New York Center
07:46PM 40.5000 -74.7667 106° East 334 384 10,000  Level New York TRACON
07:47PM 40.4667 -74.6500 111° Southeast 329 379 10,000 -300 Level New York TRACON
07:48PM 40.4333 -74.5333 111° Southeast 294 338 9,400 -960 Descending New York TRACON
07:49PM 40.4500 -74.4500 75° East 260 299 8,100 -1,020 Descending New York TRACON
07:50PM 40.4833 -74.3500 66° East 257 296 7,300 -600 Descending New York TRACON
07:51PM 40.5000 -74.2667 75° East 254 292 7,000 -300 Descending New York TRACON
07:52PM 40.4833 -74.1833 105° East 229 264 6,700 -900 Descending New York TRACON
07:53PM 40.5000 -74.1167 72° East 214 246 5,200 -1,380 Descending New York TRACON
07:54PM 40.5333 -74.0833 37° Northeast 199 229 4,000 -600 Descending New York TRACON
07:55PM 40.5833 -74.0333 37° Northeast 194 223 4,000 -240 Level New York TRACON
07:56PM 40.6333 -74.0000 27° Northeast 195 224 3,500 -600 Descending New York TRACON
07:57PM 40.6667 -73.9667 37° Northeast 184 212 2,900 -540 Descending New York TRACON
07:58PM 40.7167 -73.9333 27° Northeast 174 200 2,500 -660 Descending New York TRACON
07:59PM 40.7333 -73.8667 72° East 158 182 1,600 -900 Descending New York TRACON
08:00PM 40.7500 -73.8333 57° Northeast 146 168 700 -900 Descending New York TRACON
08:02PM 40.7667 -73.8667 30° Northeast  Level FlightAware Approximate
08:09PM 40.7772 -73.8726 30° Northeast  Level Estimated
08:10PM 40.7772 -73.8726 30° Northeast  Level Estimated